Time;durP1;ratioP1;P1;durP2;ratioP2;P2;SDS_P1;SDS_P2;PMS_P1;PMS_P2;Temp;Humidity;BMP_temperature;BMP_pressure;BME280_temperature;BME280_humidity;BME280_pressure;Samples;Min_cycle;Max_cycle;Signal;HPM_P1;HPM_P2
2022/03/04 00:00:22;;;;;;;21.10;9.85;;;;;;;2.19;59.27;101861.97;5058175;28;20539;-85
2022/03/04 00:02:48;;;;;;;19.40;8.60;;;;;;;2.19;58.20;101861.97;5059240;28;20021;-86
2022/03/04 00:05:13;;;;;;;18.30;8.27;;;;;;;2.16;59.30;101861.88;5062264;28;20025;-86
2022/03/04 00:07:38;;;;;;;19.38;8.95;;;;;;;2.12;59.84;101862.59;5058310;28;20036;-86
2022/03/04 00:10:04;;;;;;;18.42;8.10;;;;;;;2.12;59.39;101870.28;5059153;28;20488;-85
2022/03/04 00:12:30;;;;;;;20.77;9.70;;;;;;;2.07;59.71;101866.66;5058588;28;20032;-85
2022/03/04 00:14:55;;;;;;;19.83;9.30;;;;;;;2.05;59.77;101868.28;5058136;28;20037;-85
2022/03/04 00:17:20;;;;;;;20.40;9.63;;;;;;;2.01;60.00;101875.00;5058999;28;20033;-84
2022/03/04 00:19:46;;;;;;;19.92;9.40;;;;;;;1.99;60.23;101887.75;5059287;28;20029;-85
2022/03/04 00:22:14;;;;;;;22.75;11.13;;;;;;;1.92;60.91;101884.91;5057826;28;20496;-85
2022/03/04 00:24:39;;;;;;;22.70;11.10;;;;;;;1.91;60.92;101886.59;5058983;28;20052;-85
2022/03/04 00:27:05;;;;;;;21.77;10.50;;;;;;;1.87;61.30;101882.16;5058947;28;20048;-85
2022/03/04 00:29:30;;;;;;;22.73;10.63;;;;;;;1.83;61.11;101882.88;5057863;28;20429;-85
2022/03/04 00:31:55;;;;;;;21.92;10.75;;;;;;;1.79;60.79;101888.69;5059564;28;20055;-86
2022/03/04 00:34:21;;;;;;;22.40;10.43;;;;;;;1.73;61.45;101883.34;5059720;28;20025;-85
2022/03/04 00:36:46;;;;;;;21.75;10.50;;;;;;;1.69;60.78;101885.78;5059476;28;20154;-86
2022/03/04 00:39:13;;;;;;;21.33;10.27;;;;;;;1.66;61.49;101890.78;5059472;28;20051;-85
2022/03/04 00:41:38;;;;;;;;;;;;;;;1.64;61.40;101891.53;5058607;28;20032;-85
2022/03/04 00:44:04;;;;;;;21.63;10.30;;;;;;;1.58;62.03;101887.03;5040418;28;19921;-85
2022/03/04 00:46:32;;;;;;;22.60;11.43;;;;;;;1.57;60.97;101892.13;5054472;28;20033;-85
2022/03/04 00:48:57;;;;;;;23.17;11.48;;;;;;;1.58;61.40;101889.59;5054869;28;20033;-85
2022/03/04 00:51:23;;;;;;;24.63;11.57;;;;;;;1.52;62.29;101882.56;5054953;28;20484;-85
2022/03/04 00:53:48;;;;;;;24.08;12.25;;;;;;;1.54;62.47;101892.88;5055362;28;20048;-85
2022/03/04 00:56:13;;;;;;;23.00;11.30;;;;;;;1.57;62.01;101890.44;5054833;28;20025;-85
2022/03/04 00:58:40;;;;;;;23.92;12.27;;;;;;;1.51;62.38;101885.97;5055198;28;20021;-85
2022/03/04 01:01:06;;;;;;;24.00;12.20;;;;;;;1.52;61.50;101892.78;5055363;28;20021;-85
2022/03/04 01:03:35;;;;;;;23.92;12.27;;;;;;;1.50;62.65;101893.56;5054570;28;20032;-85
2022/03/04 01:06:01;;;;;;;21.92;11.30;;;;;;;1.50;62.38;101893.56;5055487;28;20432;-85
2022/03/04 01:08:27;;;;;;;21.35;10.43;;;;;;;1.44;61.56;101893.34;5054618;28;20071;-84
2022/03/04 01:10:52;;;;;;;21.17;9.65;;;;;;;1.42;61.31;101897.50;5054322;28;20028;-85
2022/03/04 01:13:18;;;;;;;21.15;9.88;;;;;;;1.37;62.33;101900.75;5054720;28;20044;-85
2022/03/04 01:15:44;;;;;;;20.75;9.25;;;;;;;1.37;62.42;101899.88;5055316;28;20029;-85
2022/03/04 01:18:12;;;;;;;19.13;8.57;;;;;;;1.36;61.42;101903.25;5053808;28;20024;-85
2022/03/04 01:20:37;;;;;;;16.85;7.85;;;;;;;1.35;61.33;101906.63;5053632;28;20120;-85
2022/03/04 01:23:03;;;;;;;18.20;7.50;;;;;;;1.34;61.11;101894.66;5063201;22;20524;-85
2022/03/04 01:25:28;;;;;;;17.55;6.97;;;;;;;1.33;60.83;101904.03;5053595;28;20025;-85
2022/03/04 01:27:53;;;;;;;14.80;5.95;;;;;;;1.28;60.50;101886.75;5054694;28;20070;-85
2022/03/04 01:30:19;;;;;;;14.40;5.55;;;;;;;1.29;60.79;101881.69;5054656;28;20094;-85
2022/03/04 01:32:47;;;;;;;16.55;6.97;;;;;;;1.22;63.50;101889.94;5054155;28;20030;-85
2022/03/04 01:35:13;;;;;;;17.15;6.85;;;;;;;1.20;62.98;101887.28;5054610;28;20092;-85
2022/03/04 01:37:40;;;;;;;16.58;7.10;;;;;;;1.11;62.77;101883.50;5054442;28;20059;-85
2022/03/04 01:40:07;;;;;;;18.60;8.23;;;;;;;1.08;62.88;101882.56;5053855;28;20029;-85
2022/03/04 01:42:32;;;;;;;17.67;7.20;;;;;;;1.08;62.31;101882.56;5037143;28;20458;-85
2022/03/04 01:44:58;;;;;;;17.65;7.13;;;;;;;1.03;62.42;101876.38;5034297;28;20030;-84
2022/03/04 01:47:23;;;;;;;17.50;7.07;;;;;;;0.98;61.99;101879.56;5034014;28;20017;-85
2022/03/04 01:49:50;;;;;;;17.92;7.50;;;;;;;0.91;64.45;101878.44;5034719;28;20053;-85
2022/03/04 01:52:16;;;;;;;18.02;7.68;;;;;;;0.85;63.39;101881.59;5033241;28;20149;-85
2022/03/04 01:54:42;;;;;;;18.85;8.48;;;;;;;0.77;65.75;101883.88;5033946;28;20057;-85
2022/03/04 01:57:07;;;;;;;21.23;10.07;;;;;;;0.72;64.18;101881.94;5032925;28;20048;-85
2022/03/04 01:59:33;;;;;;;23.95;11.15;;;;;;;0.72;65.21;101884.50;5033407;28;20029;-85
2022/03/04 02:01:58;;;;;;;22.98;10.65;;;;;;;0.64;65.51;101889.28;5048214;28;20032;-85
2022/03/04 02:04:25;;;;;;;23.50;10.95;;;;;;;0.60;65.83;101895.94;5053957;28;20052;-85
2022/03/04 02:06:51;;;;;;;22.73;11.00;;;;;;;0.54;66.21;101897.34;5053312;28;20025;-85
2022/03/04 02:09:16;;;;;;;25.02;13.02;;;;;;;0.43;66.85;101887.56;5053501;28;20548;-85
2022/03/04 02:11:43;;;;;;;25.58;12.55;;;;;;;0.46;66.44;101902.13;5054070;28;20033;-85
2022/03/04 02:14:09;;;;;;;26.67;13.73;;;;;;;0.39;66.91;101895.88;5043587;28;20017;-85
2022/03/04 02:16:40;;;;;;;26.27;13.35;;;;;;;0.38;67.20;101898.38;5033852;28;20030;-85
2022/03/04 02:19:05;;;;;;;25.00;12.73;;;;;;;0.38;66.71;101894.13;5033946;28;20068;-85
2022/03/04 02:21:32;;;;;;;25.33;12.85;;;;;;;0.38;67.00;101888.16;5032826;28;20061;-85
2022/03/04 02:24:00;;;;;;;24.85;11.98;;;;;;;0.33;67.12;101890.50;5033372;28;20096;-85
2022/03/04 02:26:26;;;;;;;23.10;11.60;;;;;;;0.30;67.20;101886.13;5033711;28;20057;-85
2022/03/04 02:28:51;;;;;;;23.52;11.68;;;;;;;0.30;67.05;101895.47;5033828;28;20442;-85
2022/03/04 02:31:18;;;;;;;23.10;11.95;;;;;;;0.28;67.12;101886.88;5033496;28;20093;-84
2022/03/04 02:33:45;;;;;;;24.38;12.13;;;;;;;0.27;67.28;101887.69;5033939;28;20053;-85
2022/03/04 02:36:10;;;;;;;24.27;11.98;;;;;;;0.22;67.44;101887.47;5033158;28;20389;-85
2022/03/04 02:38:36;;;;;;;25.02;12.82;;;;;;;0.19;67.68;101886.47;5033142;28;20116;-85
2022/03/04 02:41:01;;;;;;;26.13;13.95;;;;;;;0.13;67.85;101884.53;5033884;28;20022;-84
2022/03/04 02:43:27;;;;;;;26.80;13.88;;;;;;;0.12;68.16;101882.78;5052693;28;20373;-85
2022/03/04 02:45:52;;;;;;;26.77;14.48;;;;;;;0.09;68.30;101868.19;5053401;28;20441;-85
2022/03/04 02:48:18;;;;;;;26.75;13.68;;;;;;;0.10;68.05;101882.72;5052187;28;20071;-84
2022/03/04 02:50:43;;;;;;;27.23;13.80;;;;;;;0.06;68.23;101880.81;5052885;28;20070;-85
2022/03/04 02:53:09;;;;;;;25.90;13.57;;;;;;;-0.03;68.52;101868.50;5052749;28;20060;-85
2022/03/04 02:55:34;;;;;;;27.08;14.50;;;;;;;-0.02;68.85;101871.97;5050007;28;20154;-85
2022/03/04 02:58:00;;;;;;;27.15;14.82;;;;;;;-0.03;67.95;101881.28;5052329;28;20131;-85
2022/03/04 03:00:25;;;;;;;27.02;14.55;;;;;;;-0.08;69.01;101877.66;5052755;28;20017;-86
2022/03/04 03:02:51;;;;;;;28.33;14.60;;;;;;;-0.10;68.94;101876.72;5054212;28;20489;-85
2022/03/04 03:05:16;;;;;;;27.73;14.45;;;;;;;-0.11;69.25;101879.22;5054858;28;20021;-86
2022/03/04 03:07:42;;;;;;;29.70;15.30;;;;;;;-0.14;69.18;101879.06;5054846;28;20036;-85
2022/03/04 03:10:09;;;;;;;27.95;15.02;;;;;;;-0.15;69.37;101878.16;5044542;28;20370;-85
2022/03/04 03:12:40;;;;;;;26.48;14.40;;;;;;;-0.20;69.45;101875.41;5033266;28;20386;-85
2022/03/04 03:15:06;;;;;;;28.75;14.88;;;;;;;-0.21;69.68;101873.66;5033350;28;20030;-85
2022/03/04 03:17:32;;;;;;;28.00;14.60;;;;;;;-0.26;69.86;101864.03;5031826;28;20401;-85
2022/03/04 03:19:57;;;;;;;27.08;14.63;;;;;;;-0.28;69.91;101871.63;5033098;28;20026;-85
2022/03/04 03:22:22;;;;;;;27.08;14.48;;;;;;;-0.28;68.82;101874.19;5034572;28;20035;-84
2022/03/04 03:24:48;;;;;;;28.35;15.23;;;;;;;-0.32;69.96;101872.28;5012680;28;20113;-85
2022/03/04 03:27:14;;;;;;;27.45;14.20;;;;;;;-0.34;69.80;101866.28;5013012;28;20026;-85
2022/03/04 03:29:39;;;;;;;28.08;14.88;;;;;;;-0.33;70.31;101873.09;5012931;28;20022;-85
2022/03/04 03:32:05;;;;;;;28.60;15.43;;;;;;;-0.40;70.65;101873.63;5012306;28;20038;-85
2022/03/04 03:34:30;;;;;;;27.33;14.50;;;;;;;-0.39;70.52;101880.47;5013044;28;20037;-85
2022/03/04 03:36:55;;;;;;;28.88;15.45;;;;;;;-0.42;71.01;101890.53;5012678;28;20026;-85
2022/03/04 03:39:21;;;;;;;30.00;15.38;;;;;;;-0.47;70.96;101883.56;5030544;28;20454;-84
2022/03/04 03:41:46;;;;;;;30.02;16.17;;;;;;;-0.50;70.88;101885.94;5023206;28;20030;-84
2022/03/04 03:44:14;;;;;;;30.15;15.45;;;;;;;-0.47;70.99;101888.66;5012946;28;20026;-85
2022/03/04 03:46:39;;;;;;;29.08;15.60;;;;;;;-0.51;70.58;101883.34;5011792;28;20080;-85
2022/03/04 03:49:05;;;;;;;28.02;15.38;;;;;;;-0.53;71.03;101882.38;5012876;28;20033;-85
2022/03/04 03:51:30;;;;;;;27.95;15.18;;;;;;;-0.56;71.19;101885.66;5012706;28;20033;-85
2022/03/04 03:53:55;;;;;;;29.40;15.48;;;;;;;-0.62;71.88;101881.13;5012075;28;20022;-85
2022/03/04 03:56:21;;;;;;;29.25;15.48;;;;;;;-0.63;71.74;101881.97;5012890;28;20076;-85
2022/03/04 03:58:46;;;;;;;28.63;15.10;;;;;;;-0.68;71.62;101883.41;5012158;28;20036;-84
2022/03/04 04:01:11;;;;;;;29.25;15.63;;;;;;;-0.67;71.75;101882.59;5012841;28;20030;-85
2022/03/04 04:03:36;;;;;;;28.42;14.75;;;;;;;-0.63;71.22;101886.16;5012563;28;20368;-85
2022/03/04 04:06:02;;;;;;;27.35;14.80;;;;;;;-0.68;71.64;101885.09;5019568;28;20033;-85
2022/03/04 04:08:27;;;;;;;29.13;16.20;;;;;;;-0.69;72.23;101893.53;5032094;28;20030;-85
2022/03/04 04:10:53;;;;;;;27.50;15.10;;;;;;;-0.71;72.38;101887.50;5032283;28;20120;-85
2022/03/04 04:13:18;;;;;;;28.10;15.10;;;;;;;-0.72;70.96;101881.50;5030984;28;20037;-85
2022/03/04 04:15:44;;;;;;;28.63;14.95;;;;;;;-0.70;71.74;101894.34;5032165;28;20025;-86
2022/03/04 04:18:09;;;;;;;29.35;15.40;;;;;;;-0.71;72.06;101900.25;5031936;28;20037;-85
2022/03/04 04:20:35;;;;;;;28.67;15.15;;;;;;;-0.72;71.62;101903.59;5031784;28;20041;-85
2022/03/04 04:23:00;;;;;;;26.58;13.85;;;;;;;-0.72;72.01;101909.53;5035804;28;20466;-84
2022/03/04 04:25:25;;;;;;;25.90;13.60;;;;;;;-0.72;71.74;101901.03;5036023;28;20052;-85
2022/03/04 04:27:51;;;;;;;26.42;14.20;;;;;;;-0.73;70.96;101902.69;5035245;28;20036;-84
2022/03/04 04:30:16;;;;;;;26.52;13.15;;;;;;;-0.71;70.71;101907.88;5035790;28;20033;-84
2022/03/04 04:32:41;;;;;;;25.33;12.77;;;;;;;-0.74;71.07;101905.19;5035730;28;20037;-85
2022/03/04 04:35:07;;;;;;;24.58;12.27;;;;;;;-0.73;71.42;101899.28;5035259;28;20129;-85
2022/03/04 04:37:32;;;;;;;23.30;11.93;;;;;;;-0.77;71.55;101898.25;5034702;28;20087;-85
2022/03/04 04:39:58;;;;;;;22.20;10.57;;;;;;;-0.75;71.85;101911.06;5036078;28;20033;-84
2022/03/04 04:42:23;;;;;;;22.08;11.02;;;;;;;-0.79;71.54;101913.47;5035075;28;20018;-85
2022/03/04 04:44:49;;;;;;;25.20;12.90;;;;;;;-0.88;72.44;101904.53;5034689;28;20033;-85
2022/03/04 04:47:14;;;;;;;26.60;14.15;;;;;;;-0.88;72.28;101910.47;5035716;28;20076;-85
2022/03/04 04:49:39;;;;;;;27.55;13.77;;;;;;;-0.88;72.20;101909.63;5034669;28;20021;-84
2022/03/04 04:52:09;;;;;;;29.48;15.50;;;;;;;-0.90;72.57;101912.06;5036215;28;20116;-85
2022/03/04 04:54:43;;;;;;;27.00;14.13;;;;;;;-0.89;72.59;101913.81;5037805;28;20025;-85
2022/03/04 04:57:08;;;;;;;28.85;14.80;;;;;;;-0.93;72.33;101907.69;5036404;28;20017;-84
2022/03/04 04:59:40;;;;;;;25.95;13.63;;;;;;;-0.94;72.80;101905.09;5036165;28;20032;-84
2022/03/04 05:02:05;;;;;;;26.48;13.50;;;;;;;-0.91;72.36;101910.34;5042532;28;20037;-84
2022/03/04 05:04:30;;;;;;;25.02;13.60;;;;;;;-0.92;72.62;101908.59;5055086;28;20362;-85
2022/03/04 05:06:56;;;;;;;24.58;12.27;;;;;;;-0.92;72.00;101903.50;5055317;28;20111;-85
2022/03/04 05:09:21;;;;;;;25.40;12.55;;;;;;;-0.94;71.67;101912.75;5054407;28;20013;-85
2022/03/04 05:11:47;;;;;;;25.45;12.30;;;;;;;-0.96;71.55;101902.44;5055127;28;20024;-85
2022/03/04 05:14:12;;;;;;;24.50;12.18;;;;;;;-0.94;72.12;101907.63;5055027;28;20029;-85
2022/03/04 05:16:37;;;;;;;22.08;10.57;;;;;;;-0.96;70.87;101904.13;5053848;28;20017;-85
2022/03/04 05:19:03;;;;;;;21.83;10.23;;;;;;;-0.96;71.27;101899.03;5055283;28;20380;-84
2022/03/04 05:21:28;;;;;;;22.25;10.23;;;;;;;-0.95;71.04;101910.97;5054748;28;20036;-85
2022/03/04 05:24:00;;;;;;;21.67;10.35;;;;;;;-0.99;72.04;101899.78;5053850;28;20037;-84
2022/03/04 05:26:38;;;;;;;21.50;10.38;;;;;;;-1.01;72.79;101908.13;5054279;28;20541;-85
2022/03/04 05:29:08;;;;;;;25.10;12.35;;;;;;;-1.05;73.20;101909.66;5054668;28;20023;-85
2022/03/04 05:31:33;;;;;;;27.67;14.57;;;;;;;-1.09;73.03;101905.22;5033720;28;20433;-85
2022/03/04 05:33:58;;;;;;;26.65;13.88;;;;;;;-1.11;72.36;101912.75;5036316;28;20028;-86
2022/03/04 05:36:24;;;;;;;25.60;13.00;;;;;;;-1.09;72.45;101910.31;5036905;28;20060;-86
2022/03/04 05:38:50;;;;;;;24.88;12.38;;;;;;;-1.16;72.20;101910.78;5036428;28;20032;-86
2022/03/04 05:41:17;;;;;;;24.67;12.45;;;;;;;-1.12;73.22;101915.25;5035569;28;20026;-85
2022/03/04 05:43:43;;;;;;;;;;;;;;;-1.14;73.33;101924.47;5035080;28;20037;-85
2022/03/04 05:46:08;;;;;;;28.13;14.77;;;;;;;-1.16;73.49;101926.06;5034526;28;19913;-85
2022/03/04 05:48:33;;;;;;;27.92;14.70;;;;;;;-1.13;72.45;101929.69;5034463;28;20128;-85
2022/03/04 05:50:59;;;;;;;26.30;12.85;;;;;;;-1.14;73.21;101927.91;5034539;28;20021;-86
2022/03/04 05:53:24;;;;;;;24.67;12.57;;;;;;;-1.18;72.99;101928.56;5033346;28;20034;-84
2022/03/04 05:55:49;;;;;;;26.90;13.80;;;;;;;-1.16;72.75;101937.16;5034231;28;20064;-85
2022/03/04 05:58:14;;;;;;;27.13;13.95;;;;;;;-1.21;73.40;101945.38;5041934;28;20033;-85
2022/03/04 06:00:40;;;;;;;27.25;14.23;;;;;;;-1.25;73.80;101939.25;5053648;28;20033;-85
2022/03/04 06:03:07;;;;;;;29.75;15.43;;;;;;;-1.28;74.09;101939.06;5054566;28;20021;-85
2022/03/04 06:05:33;;;;;;;27.70;14.32;;;;;;;-1.30;73.71;101946.66;5052762;28;20876;-85
2022/03/04 06:07:58;;;;;;;29.73;15.70;;;;;;;-1.30;74.12;101948.31;5054206;28;20104;-84
2022/03/04 06:10:23;;;;;;;27.45;15.45;;;;;;;-1.29;73.66;101957.69;5053747;28;20021;-85
2022/03/04 06:12:49;;;;;;;28.33;14.55;;;;;;;-1.30;74.23;101950.84;5053414;28;20055;-85
2022/03/04 06:15:14;;;;;;;27.35;14.25;;;;;;;-1.31;73.73;101949.09;5053808;28;20029;-85
2022/03/04 06:17:48;;;;;;;29.60;15.85;;;;;;;-1.34;74.36;101954.91;5053368;28;20369;-85
2022/03/04 06:20:14;;;;;;;29.83;16.05;;;;;;;-1.35;74.66;101949.75;5053235;28;20079;-86
2022/03/04 06:22:39;;;;;;;30.98;16.52;;;;;;;-1.31;73.92;101954.19;5053472;28;20040;-85
2022/03/04 06:25:05;;;;;;;26.92;14.65;;;;;;;-1.29;73.48;101953.47;5053493;28;20083;-85
2022/03/04 06:27:30;;;;;;;27.73;14.63;;;;;;;-1.31;73.83;101949.09;5033673;28;20109;-86
2022/03/04 06:29:56;;;;;;;25.40;13.23;;;;;;;-1.27;72.82;101954.44;5033861;28;20021;-86
2022/03/04 06:32:21;;;;;;;26.67;13.88;;;;;;;-1.29;73.41;101948.38;5033282;28;20083;-85
2022/03/04 06:34:46;;;;;;;26.83;13.93;;;;;;;-1.28;74.33;101955.22;5033266;28;20040;-85
2022/03/04 06:37:12;;;;;;;29.23;15.63;;;;;;;-1.29;74.27;101953.47;5033794;28;20038;-86
2022/03/04 06:39:37;;;;;;;30.40;16.25;;;;;;;-1.30;74.38;101961.03;5033764;28;20025;-87
2022/03/04 06:42:03;;;;;;;29.55;15.57;;;;;;;-1.25;73.97;101957.06;5033452;28;20034;-86
2022/03/04 06:44:28;;;;;;;31.83;17.13;;;;;;;-0.73;73.81;101955.38;5051630;28;20045;-86
2022/03/04 06:46:54;;;;;;;30.48;16.17;;;;;;;0.05;71.56;101958.19;5044212;28;20028;-86
2022/03/04 06:49:19;;;;;;;28.08;15.07;;;;;;;0.96;68.91;101966.41;5053751;28;20032;-86
2022/03/04 06:51:44;;;;;;;29.70;16.05;;;;;;;1.78;66.08;101958.63;5054148;28;20036;-86
2022/03/04 06:54:09;;;;;;;28.73;15.88;;;;;;;2.09;65.92;101968.31;5053385;28;20488;-86
2022/03/04 06:56:35;;;;;;;27.45;15.18;;;;;;;2.06;64.50;101968.25;5067363;22;20056;-86
2022/03/04 06:59:00;;;;;;;26.48;13.65;;;;;;;1.91;64.45;101970.19;5053467;28;20021;-86
2022/03/04 07:01:25;;;;;;;27.00;14.32;;;;;;;1.87;64.31;101976.91;5052861;28;20025;-86
2022/03/04 07:04:02;;;;;;;26.77;15.05;;;;;;;2.06;64.32;101975.03;5052911;28;20017;-87
2022/03/04 07:06:30;;;;;;;28.98;15.70;;;;;;;2.34;63.80;101973.53;5052866;28;20036;-87
2022/03/04 07:08:58;;;;;;;29.30;16.40;;;;;;;2.60;61.47;101985.56;5051880;28;20424;-86
2022/03/04 07:11:23;;;;;;;29.63;15.60;;;;;;;2.76;62.79;101984.41;5052141;28;20037;-84
2022/03/04 07:13:48;;;;;;;30.08;16.13;;;;;;;2.37;61.82;101989.88;5053100;28;20032;-85
2022/03/04 07:16:23;;;;;;;31.73;16.90;;;;;;;1.67;63.89;101994.03;5052365;28;20493;-84
2022/03/04 07:18:48;;;;;;;30.98;17.30;;;;;;;1.14;65.31;101989.34;5053104;28;20111;-86
2022/03/04 07:21:14;;;;;;;29.65;16.50;;;;;;;0.81;66.93;102015.22;5053220;28;20082;-85
2022/03/04 07:23:39;;;;;;;30.58;16.13;;;;;;;0.61;67.19;102004.09;5051444;28;20032;-85
2022/03/04 07:26:08;;;;;;;29.63;15.55;;;;;;;0.46;68.22;102006.84;5052488;28;20029;-85
2022/03/04 07:28:33;;;;;;;28.42;15.10;;;;;;;0.38;68.10;102003.94;5052568;28;20505;-84
2022/03/04 07:30:59;;;;;;;27.92;15.70;;;;;;;0.31;69.33;102014.69;5051741;28;20025;-85
2022/03/04 07:33:24;;;;;;;28.30;15.20;;;;;;;0.24;68.47;101994.78;5052114;28;20075;-85
2022/03/04 07:35:49;;;;;;;26.42;14.52;;;;;;;0.27;68.58;102006.03;5052495;28;20048;-85
2022/03/04 07:38:17;;;;;;;27.20;14.02;;;;;;;0.36;68.24;102003.00;5051820;28;20033;-85
2022/03/04 07:40:46;;;;;;;27.83;14.60;;;;;;;0.29;68.90;102006.94;5052380;28;20021;-85
2022/03/04 07:43:11;;;;;;;26.77;14.05;;;;;;;0.38;69.72;102021.81;5052940;28;20029;-84
2022/03/04 07:45:37;;;;;;;28.05;14.57;;;;;;;0.38;69.50;102016.72;5051943;28;20047;-84
2022/03/04 07:48:03;;;;;;;26.60;14.00;;;;;;;0.42;69.08;102013.50;5052170;28;20021;-84
2022/03/04 07:50:28;;;;;;;25.80;13.20;;;;;;;0.47;69.52;102018.81;5052080;28;20025;-85
2022/03/04 07:52:53;;;;;;;28.45;15.07;;;;;;;0.53;68.94;102019.09;5051558;28;20055;-84
2022/03/04 07:55:19;;;;;;;29.73;15.88;;;;;;;0.56;69.00;102015.81;5054350;28;20502;-84
2022/03/04 07:57:50;;;;;;;28.40;16.02;;;;;;;0.61;69.39;102020.31;5058877;28;20115;-84
2022/03/04 08:00:17;;;;;;;30.75;17.23;;;;;;;0.61;69.62;102019.44;5055896;28;20065;-84
2022/03/04 08:02:42;;;;;;;29.13;16.40;;;;;;;0.67;68.81;102024.84;5056981;28;20029;-86
2022/03/04 08:05:08;;;;;;;30.27;17.08;;;;;;;0.69;69.09;102027.44;5060564;28;20854;-88
2022/03/04 08:07:35;;;;;;;30.98;16.02;;;;;;;0.73;69.23;102019.97;5058841;28;20362;-83
2022/03/04 08:10:01;;;;;;;29.38;15.98;;;;;;;0.79;69.57;102018.50;5056958;28;20040;-84
2022/03/04 08:12:26;;;;;;;28.88;15.63;;;;;;;0.83;69.03;102018.72;5054139;28;20025;-83
2022/03/04 08:14:53;;;;;;;29.55;16.27;;;;;;;0.92;68.96;102029.34;5056337;28;20078;-83
2022/03/04 08:17:19;;;;;;;32.22;17.45;;;;;;;0.96;68.42;102024.38;5056802;28;20358;-82
2022/03/04 08:19:44;;;;;;;31.80;16.88;;;;;;;1.03;68.73;102027.22;5055156;28;20023;-81
2022/03/04 08:22:12;;;;;;;31.73;17.73;;;;;;;1.08;68.79;102030.88;5055633;28;20025;-81
2022/03/04 08:24:37;;;;;;;30.38;16.95;;;;;;;1.16;68.28;102033.75;5055724;28;20074;-81
2022/03/04 08:27:03;;;;;;;32.20;18.58;;;;;;;1.25;68.02;102030.69;5055249;28;20037;-81
2022/03/04 08:29:28;;;;;;;30.48;17.58;;;;;;;1.33;68.37;102029.34;5055733;28;20044;-81
2022/03/04 08:31:54;;;;;;;29.63;16.25;;;;;;;1.41;67.93;102016.84;5055984;28;20025;-80
2022/03/04 08:34:19;;;;;;;31.83;17.88;;;;;;;1.56;67.15;102024.31;5054598;28;20018;-80
2022/03/04 08:36:44;;;;;;;29.42;16.70;;;;;;;1.76;66.97;102039.59;5055978;28;20025;-80
2022/03/04 08:39:22;;;;;;;29.13;16.00;;;;;;;1.91;66.61;102032.53;5055474;28;20025;-80
2022/03/04 08:41:56;;;;;;;29.25;16.08;;;;;;;2.05;65.32;102033.06;5054877;28;20029;-90
2022/03/04 08:44:34;;;;;;;28.95;15.63;;;;;;;2.27;65.62;102045.00;5055565;28;20079;-86
2022/03/04 08:46:59;;;;;;;31.38;17.63;;;;;;;2.38;64.80;102039.41;5054863;28;20485;-85
2022/03/04 08:49:24;;;;;;;31.55;17.88;;;;;;;2.50;64.40;102042.44;5055140;28;20021;-85
2022/03/04 08:52:02;;;;;;;33.55;18.80;;;;;;;2.61;62.81;102041.13;5045632;28;20036;-85
2022/03/04 08:54:27;;;;;;;34.28;18.98;;;;;;;2.75;63.97;102045.91;5054674;28;20032;-85
2022/03/04 08:56:53;;;;;;;32.20;17.98;;;;;;;2.87;63.78;102050.63;5054814;28;20052;-84
2022/03/04 08:59:24;;;;;;;30.17;16.45;;;;;;;3.04;61.84;102051.22;5054928;28;20029;-84
2022/03/04 09:01:49;;;;;;;29.65;16.48;;;;;;;3.13;62.31;102043.84;5054349;28;20056;-84
2022/03/04 09:04:17;;;;;;;30.02;16.40;;;;;;;3.29;61.41;102049.47;5055179;28;20047;-83
2022/03/04 09:06:42;;;;;;;28.58;16.25;;;;;;;3.37;61.19;102048.06;5054817;28;20040;-84
2022/03/04 09:09:08;;;;;;;27.85;15.70;;;;;;;3.51;61.64;102051.09;5054607;28;20071;-86
2022/03/04 09:11:33;;;;;;;27.35;15.68;;;;;;;3.62;61.26;102044.63;5055316;28;20033;-84
2022/03/04 09:14:02;;;;;;;27.90;15.52;;;;;;;3.74;61.40;102046.69;5055501;28;20108;-92
2022/03/04 09:16:44;;;;;;;27.75;15.75;;;;;;;3.91;60.92;102049.81;5056022;28;20602;-88
2022/03/04 09:19:09;;;;;;;28.70;16.52;;;;;;;4.00;58.72;102044.09;5056186;28;20037;-82
2022/03/04 09:21:37;;;;;;;26.13;14.38;;;;;;;4.11;59.79;102050.44;5054820;28;20504;-86
2022/03/04 09:24:04;;;;;;;25.45;13.95;;;;;;;4.25;60.00;102039.72;5053490;28;20455;-85
2022/03/04 09:26:30;;;;;;;27.15;14.82;;;;;;;4.41;59.85;102039.31;5054761;28;20087;-86
2022/03/04 09:28:57;;;;;;;26.45;14.80;;;;;;;4.53;59.60;102037.94;5054723;28;20072;-86
2022/03/04 09:31:23;;;;;;;29.23;16.15;;;;;;;4.60;57.61;102043.31;5053306;28;20033;-85
2022/03/04 09:33:48;;;;;;;27.75;16.17;;;;;;;4.67;58.59;102035.78;5054667;28;20025;-86
2022/03/04 09:36:14;;;;;;;27.25;15.05;;;;;;;4.81;57.75;102036.16;5055060;28;20385;-83
2022/03/04 09:38:42;;;;;;;28.50;16.38;;;;;;;4.93;57.70;102032.22;5057260;28;20100;-87
2022/03/04 09:41:07;;;;;;;26.40;15.02;;;;;;;5.13;58.18;102026.72;5055173;28;20025;-88
2022/03/04 09:43:33;;;;;;;26.23;14.50;;;;;;;5.19;57.78;102033.75;5054271;28;20051;-88
2022/03/04 09:45:58;;;;;;;25.90;15.05;;;;;;;5.24;56.44;102032.16;5055091;28;20075;-88
2022/03/04 09:48:24;;;;;;;27.40;15.60;;;;;;;5.24;56.13;102037.31;5054132;28;20552;-87
2022/03/04 09:50:50;;;;;;;29.60;16.80;;;;;;;5.24;56.63;102027.88;5054335;28;20017;-87
2022/03/04 09:53:16;;;;;;;26.30;14.32;;;;;;;5.38;57.19;102022.22;5054726;28;20419;-87
2022/03/04 09:55:42;;;;;;;25.58;14.48;;;;;;;5.57;56.85;102021.84;5054997;28;20493;-87
2022/03/04 09:58:11;;;;;;;25.60;13.65;;;;;;;5.76;56.97;102030.03;5054541;28;20036;-87
2022/03/04 10:00:38;;;;;;;24.52;13.52;;;;;;;5.92;55.44;102026.09;5054552;28;20029;-88
2022/03/04 10:03:05;;;;;;;25.65;14.73;;;;;;;6.17;55.91;102029.25;5054798;28;20033;-88
2022/03/04 10:05:33;;;;;;;26.80;14.85;;;;;;;6.21;53.72;102025.91;5054088;28;20024;-88
2022/03/04 10:07:58;;;;;;;25.65;14.90;;;;;;;6.27;54.63;102031.19;5054541;28;20469;-88
2022/03/04 10:10:24;;;;;;;25.80;15.07;;;;;;;6.39;54.43;102030.59;5054342;28;20086;-88
2022/03/04 10:12:55;;;;;;;24.42;13.55;;;;;;;6.51;51.99;102035.16;5053632;28;20033;-88
2022/03/04 10:15:22;;;;;;;27.73;16.48;;;;;;;6.49;52.59;102034.22;5054523;28;20041;-88
2022/03/04 10:18:07;;;;;;;26.45;16.05;;;;;;;6.58;53.17;102031.00;5053350;28;20029;-87
2022/03/04 10:20:43;;;;;;;28.80;15.98;;;;;;;6.70;52.55;102033.78;5053076;28;20024;-82
2022/03/04 10:23:14;;;;;;;25.23;14.60;;;;;;;6.84;52.94;102041.81;5054528;28;20420;-90
2022/03/04 10:25:43;;;;;;;27.77;16.27;;;;;;;6.87;52.73;102047.00;5053407;28;20028;-88
2022/03/04 10:28:10;;;;;;;28.52;17.13;;;;;;;6.91;52.17;102045.38;5049319;28;20056;-86
2022/03/04 10:30:35;;;;;;;30.50;17.73;;;;;;;6.93;51.11;102038.53;5052862;28;20129;-86
2022/03/04 10:33:12;;;;;;;26.20;15.27;;;;;;;7.08;52.31;102031.06;5052026;28;20112;-86
2022/03/04 10:35:39;;;;;;;27.55;16.15;;;;;;;7.22;50.01;102033.03;5052507;28;20025;-87
2022/03/04 10:38:04;;;;;;;27.73;17.25;;;;;;;7.28;50.36;102034.88;5052721;28;20108;-88
2022/03/04 10:40:44;;;;;;;27.42;16.38;;;;;;;7.34;51.16;102030.69;5052900;28;20100;-88
2022/03/04 10:43:12;;;;;;;28.42;16.92;;;;;;;7.48;50.37;102030.06;5053889;28;20041;-87
2022/03/04 10:45:43;;;;;;;26.08;14.77;;;;;;;7.62;51.13;102022.50;5053542;28;20099;-87
2022/03/04 10:48:17;;;;;;;26.33;15.00;;;;;;;7.80;51.54;102024.53;5033189;28;20040;-87
2022/03/04 10:50:46;;;;;;;25.42;14.65;;;;;;;7.95;50.68;102029.03;5034018;28;20079;-87
2022/03/04 10:53:16;;;;;;;24.08;13.10;;;;;;;8.06;50.97;102032.66;5033605;28;20033;-88
2022/03/04 10:55:59;;;;;;;24.73;13.65;;;;;;;8.21;50.90;102029.41;5033244;28;20452;-92
2022/03/04 10:58:30;;;;;;;28.02;17.23;;;;;;;8.20;47.38;102027.66;5033576;28;20041;-88
2022/03/04 11:01:09;;;;;;;26.75;15.50;;;;;;;8.13;48.35;102021.53;5041241;28;20025;-89
2022/03/04 11:03:36;;;;;;;28.38;16.23;;;;;;;8.06;47.19;102017.16;5053807;28;20382;-87
2022/03/04 11:06:09;;;;;;;27.60;16.25;;;;;;;8.24;49.10;102026.00;5053650;28;20498;-88
2022/03/04 11:08:38;;;;;;;26.95;15.77;;;;;;;8.36;46.08;102028.75;5048957;28;20471;-89
2022/03/04 11:11:05;;;;;;;24.70;15.20;;;;;;;8.47;47.62;102029.78;5055019;28;20024;-89
2022/03/04 11:13:33;;;;;;;26.65;16.58;;;;;;;8.70;47.35;102021.41;5053573;28;20457;-89